Главная страница
METAR-TAF:

METAR-TAF

Аэропорты :

Orange County Airport

Монтгомери, Нью-Йорк, США

широта: 41-30-33N, долгота: 074-15-54W, высота над уровнем моря: 111 м

Текущие метеонаблюдения

Эта сводка был подготовлена 20 минут назад, в 01:54 UTC
Ветер 11 Узел от северо-северо-восточный
Температура 5°C
Влажность 81%
Давление 1022 hPa
Видимость: 16.1 км
ясное небо

METAR: KMGJ 160154Z AUTO 03011KT 10SM CLR 05/02 A3017 RMK AO2 SLP218 T00500022

Время: 21:14 (02:14 UTC)


TAF: отсутствует

Метеонаблюдения и прогнозы для более 4000 аэропортов (сводки METAR и TAF).

Имеющиеся станции представлены на карте желтыми и красными точками.

Чтобы увидеть название станции, наведите на нее мышь.

Затем щелкните, чтобы увидеть метеонаблюдения и метеопрогнозы.

Управление картой: чтобы увеличить масштаб, щелкните зеленые кнопки с черным крестиком; чтобы уменьшить масштаб, щелкните зеленую кнопку с тире; для просмотра соседних карт щелкайте зеленые стрелки.


METAR-TAF: